Time;durP1;ratioP1;P1;durP2;ratioP2;P2;SDS_P1;SDS_P2;PMS_P1;PMS_P2;Temp;Humidity;BMP_temperature;BMP_pressure;BME280_temperature;BME280_humidity;BME280_pressure;Samples;Min_cycle;Max_cycle;Signal;HPM_P1;HPM_P2
2023/03/14 00:02:19;;;;;;;3.58;1.08;;;;;;;8.91;100.00;94047.63;5089019;28;20044;-73
2023/03/14 00:04:44;;;;;;;2.30;1.30;;;;;;;8.99;100.00;94039.03;5088893;28;20085;-73
2023/03/14 00:07:12;;;;;;;1.77;1.20;;;;;;;8.92;100.00;94015.06;5089749;28;20037;-73
2023/03/14 00:09:37;;;;;;;2.25;1.20;;;;;;;8.71;100.00;94012.88;5091258;28;20117;-73
2023/03/14 00:12:03;;;;;;;2.25;1.40;;;;;;;8.64;100.00;94007.25;5086486;28;20495;-73
2023/03/14 00:14:31;;;;;;;2.00;1.10;;;;;;;8.68;100.00;94034.44;5094797;28;20086;-73
2023/03/14 00:16:57;;;;;;;1.80;1.10;;;;;;;8.74;100.00;94043.75;5091340;28;20040;-73
2023/03/14 00:19:22;;;;;;;3.45;1.30;;;;;;;8.71;100.00;94044.34;5090934;28;20138;-72
2023/03/14 00:21:48;;;;;;;1.25;1.00;;;;;;;8.65;100.00;94050.75;5090504;28;20048;-74
2023/03/14 00:24:13;;;;;;;1.27;1.00;;;;;;;8.57;100.00;94033.84;5088550;28;20044;-73
2023/03/14 00:26:39;;;;;;;1.48;1.05;;;;;;;8.41;100.00;94035.19;5091927;28;20037;-73
2023/03/14 00:29:04;;;;;;;2.70;1.35;;;;;;;8.39;100.00;94022.38;5087206;28;20040;-73
2023/03/14 00:31:30;;;;;;;1.48;1.15;;;;;;;8.29;100.00;94033.06;5089662;28;20585;-73
2023/03/14 00:33:56;;;;;;;1.80;1.35;;;;;;;8.16;100.00;94037.22;5089811;28;20047;-73
2023/03/14 00:36:22;;;;;;;3.40;1.10;;;;;;;8.29;100.00;94023.34;5091523;28;20454;-73
2023/03/14 00:38:50;;;;;;;2.75;1.15;;;;;;;8.38;100.00;94026.06;5090488;28;20115;-73
2023/03/14 00:41:19;;;;;;;1.40;0.98;;;;;;;8.32;100.00;94022.75;5089782;28;20052;-73
2023/03/14 00:43:45;;;;;;;3.72;1.30;;;;;;;8.32;100.00;94022.00;5088688;28;20438;-73
2023/03/14 00:46:12;;;;;;;2.22;1.02;;;;;;;8.42;100.00;94027.03;5091339;28;20086;-73
2023/03/14 00:48:38;;;;;;;1.23;0.95;;;;;;;8.56;100.00;94031.53;5090209;28;20075;-73
2023/03/14 00:51:05;;;;;;;1.65;0.90;;;;;;;8.59;100.00;94036.97;5088911;28;20044;-73
2023/03/14 00:53:31;;;;;;;1.25;1.02;;;;;;;8.64;100.00;94034.25;5086203;28;20123;-73
2023/03/14 00:55:56;;;;;;;1.80;1.05;;;;;;;8.59;100.00;94030.94;5089722;28;20048;-73
2023/03/14 00:58:22;;;;;;;2.38;1.30;;;;;;;8.63;100.00;94045.03;5091303;28;20043;-73
2023/03/14 01:00:48;;;;;;;1.83;1.08;;;;;;;8.71;100.00;94054.84;5084311;28;20426;-73
2023/03/14 01:03:14;;;;;;;4.32;1.00;;;;;;;8.68;100.00;94055.41;5088856;28;20047;-73
2023/03/14 01:05:40;;;;;;;1.88;0.75;;;;;;;8.69;100.00;94062.19;5089961;28;20032;-73
2023/03/14 01:08:11;;;;;;;1.92;0.73;;;;;;;8.59;100.00;94067.66;5089731;28;20130;-74
2023/03/14 01:10:40;;;;;;;2.60;0.75;;;;;;;8.51;100.00;94070.97;5086213;28;20048;-73
2023/03/14 01:13:06;;;;;;;1.92;0.80;;;;;;;8.53;100.00;94084.56;5083860;28;20040;-73
2023/03/14 01:15:33;;;;;;;1.70;0.70;;;;;;;8.56;100.00;94083.97;5086741;28;20116;-73
2023/03/14 01:17:59;;;;;;;1.58;0.82;;;;;;;8.47;100.00;94087.25;5096584;28;20093;-73
2023/03/14 01:20:24;;;;;;;2.90;1.00;;;;;;;8.46;100.00;94090.16;5087883;28;20503;-73
2023/03/14 01:22:50;;;;;;;3.63;1.20;;;;;;;8.31;100.00;94089.34;5082328;28;20089;-73
2023/03/14 01:25:17;;;;;;;0.85;0.70;;;;;;;8.22;100.00;94077.22;5090430;28;20084;-74
2023/03/14 01:27:43;;;;;;;0.98;0.73;;;;;;;8.15;100.00;94070.50;5089220;28;20577;-74
2023/03/14 01:30:11;;;;;;;3.80;1.00;;;;;;;8.07;100.00;94076.38;5089051;28;20051;-75
2023/03/14 01:32:37;;;;;;;1.52;0.93;;;;;;;8.05;100.00;94075.16;5092106;28;20668;-74
2023/03/14 01:35:03;;;;;;;2.33;0.90;;;;;;;7.98;100.00;94078.13;5089396;28;20036;-73
2023/03/14 01:37:28;;;;;;;3.60;1.27;;;;;;;7.94;100.00;94069.28;5090107;28;20569;-73
2023/03/14 01:39:54;;;;;;;3.97;1.10;;;;;;;7.89;100.00;94077.25;5090422;28;20085;-73
2023/03/14 01:42:19;;;;;;;2.08;0.77;;;;;;;7.99;100.00;94077.06;5082177;28;20109;-73
2023/03/14 01:44:53;;;;;;;2.08;1.20;;;;;;;7.90;100.00;94078.78;5088991;28;20529;-73
2023/03/14 01:47:19;;;;;;;5.00;1.27;;;;;;;7.89;100.00;94077.25;5090589;28;20534;-73
2023/03/14 01:49:49;;;;;;;2.78;0.80;;;;;;;7.89;100.00;94072.78;5092788;28;20470;-73
2023/03/14 01:52:31;;;;;;;2.58;1.08;;;;;;;7.86;100.00;94078.59;5086064;28;20040;-73
2023/03/14 01:55:11;;;;;;;5.45;1.35;;;;;;;7.76;100.00;94068.28;5089205;28;20055;-73
2023/03/14 01:57:41;;;;;;;4.20;1.10;;;;;;;7.91;100.00;94082.97;5084750;28;20047;-73
2023/03/14 02:00:13;;;;;;;5.25;1.30;;;;;;;7.94;100.00;94095.47;5091200;28;20047;-72
2023/03/14 02:03:05;;;;;;;5.07;1.48;;;;;;;7.96;100.00;94106.47;5085995;28;20062;-72
2023/03/14 02:05:34;;;;;;;5.47;1.83;;;;;;;7.90;100.00;94089.25;5088240;28;20044;-72
2023/03/14 02:08:02;;;;;;;6.72;1.83;;;;;;;7.95;100.00;94091.81;5091859;28;20064;-72
2023/03/14 02:10:31;;;;;;;11.45;1.80;;;;;;;7.84;100.00;94085.16;5088662;28;20048;-72
2023/03/14 02:13:01;;;;;;;4.15;1.70;;;;;;;7.91;100.00;94085.59;5085940;28;20056;-72
2023/03/14 02:15:27;;;;;;;7.97;1.75;;;;;;;7.87;100.00;94084.59;5088385;28;20160;-72
2023/03/14 02:17:53;;;;;;;4.50;1.50;;;;;;;7.81;100.00;94091.75;5094330;28;20490;-72
2023/03/14 02:20:24;;;;;;;4.53;1.30;;;;;;;7.82;100.00;94097.78;5088501;28;20043;-72
2023/03/14 02:22:50;;;;;;;14.00;1.73;;;;;;;7.71;100.00;94084.84;5089306;28;20036;-72
2023/03/14 02:25:39;;;;;;;4.75;1.17;;;;;;;7.71;100.00;94087.44;5088395;28;20036;-72
2023/03/14 02:28:05;;;;;;;6.30;1.38;;;;;;;7.66;100.00;94074.44;5093335;28;20209;-72
2023/03/14 02:30:32;;;;;;;2.03;0.90;;;;;;;7.65;100.00;94065.03;5086190;28;20067;-72
2023/03/14 02:33:06;;;;;;;2.60;0.88;;;;;;;7.53;100.00;94054.22;5088361;28;20127;-72
2023/03/14 02:35:58;;;;;;;1.40;0.80;;;;;;;7.48;100.00;94035.97;5091250;28;20449;-71
2023/03/14 02:38:31;;;;;;;1.30;0.60;;;;;;;7.41;100.00;94016.19;5086930;28;20114;-71
2023/03/14 02:40:57;;;;;;;2.50;0.90;;;;;;;7.29;100.00;94013.22;5086233;28;20092;-71
2023/03/14 02:43:23;;;;;;;2.15;1.00;;;;;;;7.27;100.00;93989.19;5086216;28;20046;-71
2023/03/14 02:45:50;;;;;;;2.20;0.70;;;;;;;7.25;100.00;93980.84;5090436;28;20048;-71
2023/03/14 02:48:23;;;;;;;3.60;0.80;;;;;;;7.22;100.00;93966.47;5089633;28;20040;-71
2023/03/14 02:50:55;;;;;;;0.73;0.57;;;;;;;7.21;100.00;93964.16;5087441;28;20480;-72
2023/03/14 02:53:25;;;;;;;2.58;1.00;;;;;;;7.23;100.00;93954.97;5087388;28;20044;-72
2023/03/14 02:55:51;;;;;;;2.30;0.82;;;;;;;7.24;100.00;93955.72;5089692;28;20054;-71
2023/03/14 02:58:17;;;;;;;0.98;0.73;;;;;;;7.22;100.00;93947.41;5089329;28;20052;-71
2023/03/14 03:00:43;;;;;;;1.48;0.85;;;;;;;7.24;100.00;93947.88;5085974;28;20040;-72
2023/03/14 03:03:09;;;;;;;2.55;0.85;;;;;;;7.22;100.00;93953.41;5083558;28;20044;-72
2023/03/14 03:05:35;;;;;;;0.93;0.63;;;;;;;7.18;100.00;93935.94;5089199;28;20036;-71
2023/03/14 03:08:00;;;;;;;1.75;0.80;;;;;;;7.20;100.00;93942.47;5088509;28;20036;-72
2023/03/14 03:10:27;;;;;;;0.60;0.60;;;;;;;7.16;100.00;93925.00;5086950;28;20040;-72
2023/03/14 03:12:53;;;;;;;0.55;0.55;;;;;;;7.09;100.00;93925.38;5086757;28;20115;-72
2023/03/14 03:15:19;;;;;;;1.02;0.70;;;;;;;7.08;100.00;93932.44;5086543;28;20490;-72
2023/03/14 03:17:44;;;;;;;1.52;0.80;;;;;;;7.06;100.00;93926.72;5087274;28;20032;-73
2023/03/14 03:20:11;;;;;;;1.58;0.57;;;;;;;7.00;100.00;93927.84;5086388;28;20055;-72
2023/03/14 03:22:38;;;;;;;0.60;0.50;;;;;;;6.98;100.00;93929.97;5085139;28;20040;-73
2023/03/14 03:25:05;;;;;;;0.50;0.40;;;;;;;6.90;100.00;93925.41;5091936;28;20098;-72
2023/03/14 03:27:32;;;;;;;0.13;0.13;;;;;;;6.85;100.00;93909.78;5090929;28;20036;-72
2023/03/14 03:29:58;;;;;;;1.45;0.55;;;;;;;6.86;100.00;93916.56;5088651;28;20039;-72
2023/03/14 03:32:24;;;;;;;0.40;0.30;;;;;;;6.85;100.00;93925.47;5081433;28;20048;-72
2023/03/14 03:34:49;;;;;;;0.63;0.63;;;;;;;6.79;100.00;93926.59;5090772;28;20071;-72
2023/03/14 03:37:15;;;;;;;0.30;0.30;;;;;;;6.81;100.00;93920.03;5095225;28;20047;-72
2023/03/14 03:39:40;;;;;;;0.93;0.20;;;;;;;6.76;100.00;93933.94;5092506;28;20080;-72
2023/03/14 03:42:06;;;;;;;0.20;0.20;;;;;;;6.83;100.00;93932.81;5088337;28;20043;-72
2023/03/14 03:44:32;;;;;;;0.10;0.10;;;;;;;6.76;100.00;93907.78;5090781;28;20068;-71
2023/03/14 03:46:58;;;;;;;0.10;0.10;;;;;;;6.74;100.00;93925.63;5095756;28;20040;-72
2023/03/14 03:49:28;;;;;;;0.17;0.17;;;;;;;6.68;100.00;93931.97;5091746;28;20032;-72
2023/03/14 03:51:53;;;;;;;0.70;0.40;;;;;;;6.59;100.00;93934.44;5088178;28;20104;-71
2023/03/14 03:54:19;;;;;;;0.80;0.30;;;;;;;6.56;100.00;93934.22;5092653;28;20119;-72
2023/03/14 03:56:44;;;;;;;0.15;0.13;;;;;;;6.61;100.00;93934.16;5091786;28;20040;-71
2023/03/14 03:59:10;;;;;;;0.52;0.47;;;;;;;6.58;100.00;93919.81;5086356;28;20044;-71
2023/03/14 04:01:35;;;;;;;0.43;0.30;;;;;;;6.57;100.00;93925.34;5089632;28;20048;-72
2023/03/14 04:04:01;;;;;;;0.30;0.30;;;;;;;6.55;100.00;93916.97;5091894;28;20174;-72
2023/03/14 04:06:27;;;;;;;1.00;0.20;;;;;;;6.56;100.00;93918.53;5089503;28;20036;-72
2023/03/14 04:08:54;;;;;;;0.20;0.20;;;;;;;6.49;100.00;93918.88;5090881;28;20616;-71
2023/03/14 04:11:19;;;;;;;0.00;0.00;;;;;;;6.48;100.00;93916.56;5092804;28;20043;-71
2023/03/14 04:13:45;;;;;;;0.17;0.15;;;;;;;6.49;100.00;93918.88;5087310;28;20097;-72
2023/03/14 04:16:20;;;;;;;0.28;0.20;;;;;;;6.46;100.00;93929.13;5091881;28;20051;-71
2023/03/14 04:18:46;;;;;;;0.13;0.13;;;;;;;6.39;100.00;93919.03;5091870;28;20029;-72
2023/03/14 04:21:11;;;;;;;1.75;0.40;;;;;;;6.32;100.00;93908.94;5090117;28;20074;-71
2023/03/14 04:23:37;;;;;;;0.47;0.32;;;;;;;6.41;100.00;93907.25;5089885;28;20043;-71
2023/03/14 04:26:03;;;;;;;0.20;0.20;;;;;;;6.35;100.00;93895.31;5089514;28;20051;-72
2023/03/14 04:28:29;;;;;;;0.47;0.40;;;;;;;6.35;100.00;93897.94;5090800;28;20040;-72
2023/03/14 04:30:54;;;;;;;0.20;0.20;;;;;;;6.36;100.00;93898.69;5086183;28;20039;-72
2023/03/14 04:33:20;;;;;;;0.55;0.35;;;;;;;6.35;100.00;93884.84;5085911;28;20031;-72
2023/03/14 04:35:46;;;;;;;0.10;0.10;;;;;;;6.36;100.00;93877.78;5090177;28;20036;-72
2023/03/14 04:38:12;;;;;;;0.10;0.00;;;;;;;6.38;100.00;93881.69;5097827;28;20445;-72
2023/03/14 04:40:39;;;;;;;0.52;0.38;;;;;;;6.36;100.00;93877.78;5090662;28;20043;-73
2023/03/14 04:43:05;;;;;;;1.27;0.30;;;;;;;6.28;100.00;93873.97;5085156;28;20051;-72
2023/03/14 04:45:31;;;;;;;0.85;0.55;;;;;;;6.30;100.00;93874.47;5088796;28;20487;-73
2023/03/14 04:47:56;;;;;;;0.20;0.20;;;;;;;6.40;100.00;93884.78;5094991;28;20036;-72
2023/03/14 04:50:22;;;;;;;0.30;0.30;;;;;;;6.41;100.00;93886.34;5086952;28;20490;-73
2023/03/14 04:52:48;;;;;;;0.43;0.43;;;;;;;6.36;100.00;93868.09;5095189;28;20028;-73
2023/03/14 04:55:13;;;;;;;6.22;0.70;;;;;;;6.37;100.00;93869.66;5088552;28;20048;-73
2023/03/14 04:57:39;;;;;;;0.50;0.20;;;;;;;6.35;100.00;93860.56;5091952;28;20384;-73
2023/03/14 05:00:06;;;;;;;0.50;0.20;;;;;;;6.38;100.00;93857.41;5086435;28;20062;-73
2023/03/14 05:02:32;;;;;;;1.35;0.30;;;;;;;6.37;100.00;93853.22;5092125;28;20503;-73
2023/03/14 05:04:57;;;;;;;0.20;0.20;;;;;;;6.38;100.00;93839.88;5087867;28;20036;-73
2023/03/14 05:07:23;;;;;;;0.93;0.30;;;;;;;6.34;100.00;93851.94;5090495;28;20070;-73
2023/03/14 05:09:49;;;;;;;0.75;0.28;;;;;;;6.28;100.00;93854.91;5090633;28;20040;-73
2023/03/14 05:12:15;;;;;;;0.30;0.15;;;;;;;6.27;100.00;93848.16;5088440;28;20036;-73
2023/03/14 05:14:40;;;;;;;1.70;0.30;;;;;;;6.29;100.00;93841.56;5087370;28;20050;-73
2023/03/14 05:17:06;;;;;;;1.55;0.40;;;;;;;6.30;100.00;93843.13;5089667;28;20036;-73
2023/03/14 05:19:31;;;;;;;0.32;0.32;;;;;;;6.27;100.00;93840.31;5089979;28;20097;-73
2023/03/14 05:21:57;;;;;;;0.35;0.22;;;;;;;6.29;100.00;93836.34;5088713;28;20071;-73
2023/03/14 05:24:22;;;;;;;0.20;0.13;;;;;;;6.30;100.00;93837.88;5091564;28;20040;-73
2023/03/14 05:26:48;;;;;;;1.85;0.10;;;;;;;6.23;100.00;93847.91;5089934;28;20047;-73
2023/03/14 05:29:14;;;;;;;0.95;0.40;;;;;;;6.27;100.00;93848.91;5095282;28;20059;-73
2023/03/14 05:31:39;;;;;;;0.30;0.20;;;;;;;6.29;100.00;93846.78;5087926;28;20039;-73
2023/03/14 05:34:05;;;;;;;0.57;0.20;;;;;;;6.30;100.00;93843.13;5094196;28;20040;-74
2023/03/14 05:36:31;;;;;;;0.98;0.50;;;;;;;6.33;100.00;93858.22;5086666;28;20510;-71
2023/03/14 05:38:56;;;;;;;0.28;0.20;;;;;;;6.31;100.00;93849.91;5088393;28;20101;-71
2023/03/14 05:41:22;;;;;;;0.22;0.22;;;;;;;6.35;100.00;93843.06;5093727;28;20127;-72
2023/03/14 05:43:47;;;;;;;0.15;0.15;;;;;;;6.32;100.00;93841.00;5090358;28;20031;-73
2023/03/14 05:46:13;;;;;;;0.52;0.35;;;;;;;6.34;100.00;93838.13;5099428;28;20051;-72
2023/03/14 05:48:39;;;;;;;0.45;0.40;;;;;;;6.27;100.00;93848.16;5099046;28;20040;-72
2023/03/14 05:51:05;;;;;;;0.47;0.22;;;;;;;6.28;100.00;93842.63;5084714;28;20047;-72
2023/03/14 05:53:31;;;;;;;0.40;0.40;;;;;;;6.31;100.00;93839.44;5089013;28;20415;-72
2023/03/14 05:55:57;;;;;;;0.20;0.20;;;;;;;6.37;100.00;93838.31;5085627;28;20036;-72
2023/03/14 05:58:23;;;;;;;0.82;0.40;;;;;;;6.33;100.00;93832.09;5088174;28;20044;-73
2023/03/14 06:00:49;;;;;;;0.50;0.50;;;;;;;6.32;100.00;93827.94;5088335;28;20093;-72
2023/03/14 06:03:14;;;;;;;0.25;0.25;;;;;;;6.25;100.00;93819.69;5084329;28;20052;-72
2023/03/14 06:05:40;;;;;;;0.70;0.45;;;;;;;6.31;100.00;93821.16;5080464;28;20115;-72
2023/03/14 06:08:05;;;;;;;1.65;0.30;;;;;;;6.28;100.00;93826.16;5095126;28;20044;-73
2023/03/14 06:10:31;;;;;;;0.32;0.22;;;;;;;6.32;100.00;93820.13;5087815;28;20040;-71
2023/03/14 06:12:57;;;;;;;0.20;0.20;;;;;;;6.30;100.00;93824.84;5088174;28;20621;-73
2023/03/14 06:15:22;;;;;;;0.32;0.30;;;;;;;6.32;100.00;93822.72;5092465;28;20039;-73
2023/03/14 06:17:48;;;;;;;0.63;0.40;;;;;;;6.33;100.00;93818.28;5074907;28;20055;-73
2023/03/14 06:20:14;;;;;;;0.98;0.63;;;;;;;6.40;100.00;93826.53;5092513;28;20047;-73
2023/03/14 06:22:40;;;;;;;2.08;0.60;;;;;;;6.24;100.00;93807.69;5087866;28;20048;-73
2023/03/14 06:25:06;;;;;;;0.82;0.50;;;;;;;6.34;100.00;93822.44;5088257;28;20415;-71
2023/03/14 06:27:32;;;;;;;0.22;0.22;;;;;;;6.37;100.00;93820.03;5095121;28;20040;-72
2023/03/14 06:29:58;;;;;;;0.30;0.30;;;;;;;6.28;100.00;93813.91;5081398;28;20041;-71
2023/03/14 06:32:24;;;;;;;0.70;0.43;;;;;;;6.32;100.00;93804.44;5080520;28;20075;-72
2023/03/14 06:34:50;;;;;;;0.50;0.50;;;;;;;6.26;100.00;93787.28;5081424;28;20055;-74
2023/03/14 06:37:15;;;;;;;0.43;0.40;;;;;;;6.26;100.00;93795.09;5092081;28;20503;-73
2023/03/14 06:39:43;;;;;;;0.30;0.30;;;;;;;6.26;100.00;93784.66;5085333;28;20139;-72
2023/03/14 06:42:09;;;;;;;0.50;0.50;;;;;;;6.23;100.00;93780.78;5087119;28;20044;-73
2023/03/14 06:44:35;;;;;;;1.85;0.88;;;;;;;6.24;100.00;93782.31;5086497;28;20035;-77
2023/03/14 06:47:00;;;;;;;1.00;0.82;;;;;;;6.31;100.00;93789.81;5088361;28;20572;-72
2023/03/14 06:49:26;;;;;;;2.28;1.23;;;;;;;6.39;100.00;93799.63;5088137;28;20047;-73
2023/03/14 06:51:52;;;;;;;2.50;1.08;;;;;;;6.51;100.00;93801.03;5083490;28;20037;-73
2023/03/14 06:54:18;;;;;;;3.08;1.25;;;;;;;6.48;100.00;93802.38;5085590;28;20051;-74
2023/03/14 06:56:43;;;;;;;2.05;0.95;;;;;;;6.53;100.00;93809.34;5086924;28;20047;-74
2023/03/14 06:59:09;;;;;;;1.23;0.57;;;;;;;6.52;100.00;93813.81;5088483;28;20040;-77
2023/03/14 07:01:37;;;;;;;0.73;0.50;;;;;;;6.52;100.00;93818.25;5080839;28;20044;-74
2023/03/14 07:04:03;;;;;;;1.00;0.63;;;;;;;6.56;100.00;93819.22;5088363;28;20050;-76
2023/03/14 07:06:31;;;;;;;0.95;0.60;;;;;;;6.54;100.00;93805.69;5085487;28;20056;-72
2023/03/14 07:08:57;;;;;;;0.93;0.70;;;;;;;6.56;100.00;93824.47;5093101;28;20040;-73
2023/03/14 07:11:23;;;;;;;0.80;0.65;;;;;;;6.58;100.00;93822.34;5088507;28;20056;-74
2023/03/14 07:13:48;;;;;;;0.30;0.30;;;;;;;6.66;100.00;93816.44;5089296;28;20048;-73
2023/03/14 07:16:14;;;;;;;1.00;0.80;;;;;;;6.66;100.00;93808.63;5089001;28;20055;-72
2023/03/14 07:18:39;;;;;;;0.40;0.40;;;;;;;6.63;100.00;93819.66;5083457;28;20041;-74
2023/03/14 07:21:08;;;;;;;1.33;0.50;;;;;;;6.66;100.00;93819.06;5077805;28;20040;-71
2023/03/14 07:23:35;;;;;;;1.65;0.40;;;;;;;6.70;100.00;93822.66;5084836;28;20040;-73
2023/03/14 07:26:01;;;;;;;2.45;0.63;;;;;;;6.70;100.00;93814.81;5088432;28;20533;-73
2023/03/14 07:28:27;;;;;;;1.50;0.43;;;;;;;6.65;100.00;93812.31;5087779;28;20507;-74
2023/03/14 07:30:53;;;;;;;0.95;0.73;;;;;;;6.64;100.00;93810.75;5086401;28;20040;-73
2023/03/14 07:33:19;;;;;;;0.50;0.50;;;;;;;6.84;100.00;93825.34;5086846;28;20055;-73
2023/03/14 07:35:47;;;;;;;0.52;0.50;;;;;;;6.89;100.00;93817.38;5086919;28;20036;-74
2023/03/14 07:38:12;;;;;;;0.70;0.55;;;;;;;6.88;100.00;93815.84;5083335;28;20032;-71
2023/03/14 07:40:38;;;;;;;3.20;0.77;;;;;;;6.86;100.00;93820.56;5078469;28;20051;-70
2023/03/14 07:43:03;;;;;;;0.52;0.50;;;;;;;7.10;100.00;93812.59;5086809;28;20400;-72
2023/03/14 07:45:29;;;;;;;0.90;0.70;;;;;;;7.04;100.00;93813.75;5086539;28;20048;-72
2023/03/14 07:47:57;;;;;;;1.92;0.65;;;;;;;7.07;100.00;93802.72;5089040;28;20036;-72
2023/03/14 07:50:26;;;;;;;0.32;0.32;;;;;;;7.29;100.00;93798.66;5087577;28;20047;-72
2023/03/14 07:52:52;;;;;;;0.75;0.60;;;;;;;7.34;100.00;93805.63;5087126;28;20032;-73
2023/03/14 07:55:18;;;;;;;1.02;0.68;;;;;;;7.43;100.00;93804.69;5088504;28;20048;-72
2023/03/14 07:57:43;;;;;;;1.02;0.75;;;;;;;7.55;100.00;93800.81;5086075;28;20392;-72
2023/03/14 08:00:10;;;;;;;0.70;0.70;;;;;;;7.65;100.00;93805.84;5084533;28;20047;-72
2023/03/14 08:02:36;;;;;;;3.05;0.95;;;;;;;7.75;100.00;93805.63;5081972;28;20047;-73
2023/03/14 08:05:03;;;;;;;1.92;0.80;;;;;;;7.77;100.00;93806.13;5085953;28;20036;-72
2023/03/14 08:07:29;;;;;;;3.67;1.05;;;;;;;7.84;100.00;93797.09;5088451;28;20164;-72
2023/03/14 08:09:55;;;;;;;1.52;1.08;;;;;;;7.92;100.00;93807.66;5089775;28;20507;-73
2023/03/14 08:12:20;;;;;;;3.13;0.90;;;;;;;7.89;100.00;93800.38;5087666;28;20043;-72
2023/03/14 08:14:46;;;;;;;1.13;0.85;;;;;;;7.83;100.00;93800.75;5091025;28;20042;-73
2023/03/14 08:17:12;;;;;;;1.30;0.70;;;;;;;7.81;100.00;93787.97;5091883;28;20123;-73
2023/03/14 08:19:37;;;;;;;2.03;0.82;;;;;;;7.92;100.00;93806.88;5087482;28;20047;-72
2023/03/14 08:22:04;;;;;;;1.35;0.98;;;;;;;8.03;100.00;93810.84;5082638;28;20050;-73
2023/03/14 08:24:29;;;;;;;2.25;1.23;;;;;;;8.01;100.00;93806.97;5083565;28;20052;-73
2023/03/14 08:26:55;;;;;;;1.52;0.85;;;;;;;8.07;100.00;93814.41;5088404;28;20066;-73
2023/03/14 08:29:20;;;;;;;1.40;0.90;;;;;;;8.01;100.00;93802.47;5087766;28;20044;-73
2023/03/14 08:31:48;;;;;;;3.90;1.10;;;;;;;8.13;100.00;93821.09;5084776;28;20474;-73
2023/03/14 08:34:14;;;;;;;2.20;0.85;;;;;;;8.12;100.00;93821.41;5087781;28;20115;-73
2023/03/14 08:36:40;;;;;;;2.10;0.80;;;;;;;8.13;100.00;93820.31;5091913;28;20031;-73
2023/03/14 08:39:07;;;;;;;1.42;0.77;;;;;;;8.13;100.00;93825.53;5090733;28;20114;-73
2023/03/14 08:41:34;;;;;;;1.27;0.70;;;;;;;8.19;100.00;93842.72;5087885;28;20059;-73
2023/03/14 08:44:00;;;;;;;1.35;0.75;;;;;;;8.23;100.00;93840.28;5087513;28;20492;-73
2023/03/14 08:46:25;;;;;;;0.55;0.55;;;;;;;8.20;100.00;93840.88;5091908;28;20050;-73
2023/03/14 08:48:51;;;;;;;0.65;0.60;;;;;;;8.10;100.00;93845.28;5089298;28;20036;-73
2023/03/14 08:51:17;;;;;;;1.00;0.77;;;;;;;8.11;100.00;93844.19;5090085;28;20046;-73
2023/03/14 08:53:43;;;;;;;1.52;0.80;;;;;;;8.22;100.00;93849.22;5091710;28;20420;-73
2023/03/14 08:56:10;;;;;;;1.77;1.05;;;;;;;8.33;100.00;93845.28;5090551;28;20093;-73
2023/03/14 08:58:37;;;;;;;0.57;0.57;;;;;;;8.21;100.00;93845.06;5081654;28;20079;-73
2023/03/14 09:01:05;;;;;;;2.00;1.02;;;;;;;8.21;100.00;93848.44;5089104;28;20044;-73
2023/03/14 09:03:30;;;;;;;3.65;1.13;;;;;;;8.19;100.00;93849.78;5087086;28;20097;-73
2023/03/14 09:06:02;;;;;;;2.03;0.80;;;;;;;8.14;100.00;93840.97;5089571;28;20488;-73
2023/03/14 09:08:28;;;;;;;1.08;0.93;;;;;;;8.26;100.00;93855.41;5089414;28;20052;-73
2023/03/14 09:10:53;;;;;;;1.85;0.90;;;;;;;8.24;100.00;93857.56;5088909;28;20036;-73
2023/03/14 09:13:19;;;;;;;2.83;1.23;;;;;;;8.28;100.00;93858.53;5080963;28;20067;-73
2023/03/14 09:15:44;;;;;;;1.13;0.75;;;;;;;8.30;100.00;93857.16;5091355;28;20044;-73
2023/03/14 09:18:10;;;;;;;1.00;0.63;;;;;;;8.27;100.00;93857.72;5090378;28;20454;-72
2023/03/14 09:20:35;;;;;;;1.00;0.50;;;;;;;8.32;100.00;93854.25;5089334;28;20475;-73
2023/03/14 09:23:01;;;;;;;1.20;0.68;;;;;;;8.38;100.00;93853.06;5085224;28;20048;-73
2023/03/14 09:25:27;;;;;;;0.65;0.47;;;;;;;8.39;100.00;93854.63;5090623;28;20040;-73
2023/03/14 09:27:52;;;;;;;1.83;0.52;;;;;;;8.31;100.00;93852.69;5089001;28;20032;-73
2023/03/14 09:30:18;;;;;;;1.25;0.80;;;;;;;8.30;100.00;93856.38;5085789;28;20511;-73
2023/03/14 09:32:43;;;;;;;0.93;0.50;;;;;;;8.26;100.00;93855.41;5087442;28;20134;-73
2023/03/14 09:35:09;;;;;;;1.63;0.77;;;;;;;8.29;100.00;93854.84;5087387;28;20040;-73
2023/03/14 09:37:35;;;;;;;0.50;0.43;;;;;;;8.26;100.00;93850.16;5083678;28;20043;-72
2023/03/14 09:40:07;;;;;;;0.60;0.60;;;;;;;8.27;100.00;93841.25;5089199;28;20127;-73
2023/03/14 09:42:37;;;;;;;4.18;1.40;;;;;;;8.25;100.00;93843.41;5090348;28;20123;-73
2023/03/14 09:45:06;;;;;;;0.85;0.70;;;;;;;8.13;100.00;93831.59;5089808;28;20087;-73
2023/03/14 09:47:34;;;;;;;2.10;1.50;;;;;;;8.20;100.00;93830.38;5088918;28;20067;-73
2023/03/14 09:50:01;;;;;;;4.75;2.60;;;;;;;8.22;100.00;93831.66;5090027;28;20068;-74
2023/03/14 09:52:29;;;;;;;5.32;2.80;;;;;;;8.21;100.00;93837.19;5086768;28;20395;-72
2023/03/14 09:55:15;;;;;;;1.23;0.93;;;;;;;8.31;100.00;93836.97;5087636;28;20032;-73
2023/03/14 09:57:42;;;;;;;2.33;1.35;;;;;;;8.29;100.00;93831.25;5088034;28;20063;-73
2023/03/14 10:00:21;;;;;;;2.17;0.95;;;;;;;8.41;100.00;93821.00;5088395;28;20051;-73
2023/03/14 10:02:55;;;;;;;0.52;0.52;;;;;;;8.46;100.00;93817.53;5075165;28;20040;-73
2023/03/14 10:05:23;;;;;;;1.92;0.88;;;;;;;8.43;100.00;93811.03;5087563;28;20032;-74
2023/03/14 10:07:50;;;;;;;1.65;0.57;;;;;;;8.49;100.00;93822.16;5089180;28;20051;-73
2023/03/14 10:10:18;;;;;;;2.00;0.80;;;;;;;8.58;100.00;93819.63;5086875;28;21395;-73
2023/03/14 10:12:56;;;;;;;2.03;0.60;;;;;;;8.80;100.00;93810.97;5086682;28;20040;-73
2023/03/14 10:15:30;;;;;;;0.95;0.70;;;;;;;8.88;100.00;93812.09;5089425;28;20047;-73
2023/03/14 10:17:55;;;;;;;0.95;0.60;;;;;;;8.95;100.00;93808.00;5086688;28;20040;-73
2023/03/14 10:20:34;;;;;;;2.55;1.00;;;;;;;9.21;100.00;93809.19;5088522;28;20040;-74
2023/03/14 10:23:11;;;;;;;1.23;1.00;;;;;;;9.41;100.00;93808.69;5085469;28;20526;-74
2023/03/14 10:25:40;;;;;;;1.35;0.77;;;;;;;9.52;100.00;93804.69;5087913;28;20040;-73
2023/03/14 10:28:24;;;;;;;1.38;0.73;;;;;;;10.31;100.00;93809.31;5089486;28;20157;-73
2023/03/14 10:30:50;;;;;;;0.77;0.70;;;;;;;10.41;100.00;93803.78;5085703;28;20032;-73
2023/03/14 10:33:23;;;;;;;0.60;0.50;;;;;;;10.87;100.00;93796.31;5085533;28;20503;-73
2023/03/14 10:35:58;;;;;;;0.52;0.52;;;;;;;10.76;100.00;93790.63;5087706;28;20040;-73
2023/03/14 10:38:27;;;;;;;0.55;0.40;;;;;;;10.65;100.00;93784.91;5089502;28;20510;-73
2023/03/14 10:40:54;;;;;;;1.02;0.50;;;;;;;10.90;100.00;93790.44;5087818;28;20069;-72
2023/03/14 10:43:26;;;;;;;0.75;0.60;;;;;;;11.31;100.00;93790.94;5084687;28;20033;-73
2023/03/14 10:45:57;;;;;;;0.55;0.50;;;;;;;11.72;100.00;93795.56;5090547;28;20048;-73
2023/03/14 10:48:31;;;;;;;0.85;0.40;;;;;;;11.14;100.00;93795.19;5088692;28;20036;-72
2023/03/14 10:51:04;;;;;;;1.77;1.00;;;;;;;11.21;100.00;93806.00;5087120;28;20032;-73
2023/03/14 10:53:40;;;;;;;;;;;;;;;11.03;100.00;93800.00;5087296;28;20076;-73
2023/03/14 10:56:06;;;;;;;0.85;0.60;;;;;;;11.06;100.00;93795.97;5088355;28;20383;-74
2023/03/14 10:58:38;;;;;;;1.23;0.80;;;;;;;10.62;100.00;93801.31;5089337;28;20043;-73
2023/03/14 11:01:19;;;;;;;1.83;0.80;;;;;;;10.68;100.00;93799.28;5083852;28;20101;-73
2023/03/14 11:04:01;;;;;;;0.50;0.50;;;;;;;10.53;100.00;93809.22;5085306;28;20043;-73
2023/03/14 11:06:44;;;;;;;0.63;0.50;;;;;;;10.56;100.00;93803.31;5089308;28;20059;-74
2023/03/14 11:09:41;;;;;;;1.17;0.40;;;;;;;10.80;100.00;93809.19;5087576;28;20070;-73
2023/03/14 11:12:21;;;;;;;0.80;0.70;;;;;;;10.77;100.00;93802.69;5085391;28;20046;-74
2023/03/14 11:14:54;;;;;;;0.50;0.50;;;;;;;10.49;100.00;93795.13;5087674;28;20115;-73
2023/03/14 11:17:44;;;;;;;1.08;0.70;;;;;;;10.57;100.00;93810.13;5091348;28;20036;-73
2023/03/14 11:20:26;;;;;;;2.63;0.70;;;;;;;10.72;100.00;93810.75;5088129;28;20047;-73
2023/03/14 11:23:16;;;;;;;0.93;0.60;;;;;;;10.89;100.00;93794.94;5087892;28;20039;-73
2023/03/14 11:25:45;;;;;;;0.68;0.50;;;;;;;10.97;100.00;93806.50;5081838;28;20032;-73
2023/03/14 11:28:29;;;;;;;0.73;0.60;;;;;;;10.99;100.00;93799.09;5089923;28;20564;-73
2023/03/14 11:31:04;;;;;;;0.30;0.30;;;;;;;11.02;100.00;93787.16;5081901;28;20045;-73
2023/03/14 11:33:51;;;;;;;0.57;0.57;;;;;;;11.42;100.00;93794.75;5085634;28;20040;-73
2023/03/14 11:36:33;;;;;;;0.70;0.60;;;;;;;11.85;100.00;93775.34;5085664;28;20043;-73